Дата Время Давление Темп. Влажн. Скор.ветра Напр.ветра Макс.ветер Осадки/час Осадки
24.01.20 11:00 738.5 -2.4 89.2 2 216 5.9 0 0
24.01.20 10:00 738.6 -3.2 88 2.8 207 6 0 0
24.01.20 09:00 739.3 -4.4 88.5 2.3 197 5.2 0 0
24.01.20 08:00 739.9 -4.5 83.3 2.5 199 5 0 0
24.01.20 07:00 740.5 -5 79.2 1.9 199 4.8 0 0
24.01.20 06:00 741.2 -5 78 2.3 192 4.3 0 0
24.01.20 05:00 742 -5.1 78.1 1.9 209 3.4 0 0
24.01.20 04:00 742.5 -5 78.6 1.7 229 3.2 0 0
24.01.20 03:00 743 -4.9 78.7 1.3 221 3.2 0 0
24.01.20 02:00 743.1 -4.9 79 1.4 233 3.2 0 0
24.01.20 01:00 743.1 -4.3 78.4 1.5 270 3.3 0 0
24.01.20 00:00 742.7 -3.9 76.3 1.5 256 4 0 0.2
23.01.20 23:00 743 -4 72.1 1.3 325 4.2 0 0.2
23.01.20 22:00 743 -4.1 68.3 1.4 339 3.3 0 0.2
23.01.20 21:00 743 -4.9 65.2 1.3 21 3.5 0 0.2
23.01.20 20:00 742.8 -5.2 64 1.5 10 4.5 0 0.2
23.01.20 19:00 742.5 -4.6 59.3 1.8 10 5.5 0.2 0.2
23.01.20 18:00 741.9 -4 55.3 2 31 7.5 0 0
23.01.20 17:00 741.2 -3.6 56.5 2.3 7 9.3 0 0
23.01.20 16:00 740.8 -3.4 59.7 1.9 357 9 0 0
23.01.20 15:00 739.8 -3.5 58.2 4.6 50 12.9 0 0
23.01.20 14:00 739.7 -1.7 54.8 3.4 36 9.4 0 0
23.01.20 13:00 739.7 -2.7 61.7 2.5 23 7.6 0 0
23.01.20 12:00 739.3 -4.4 83.4 2.2 19 9.1 0 0